sensor_id;sensor_type;location;lat;lon;timestamp;P1;durP1;ratioP1;P2;durP2;ratioP2
297;SDS011;133;49.626;9.680;2024-02-16T00:00:23;6.10;;;4.73;;
297;SDS011;133;49.626;9.680;2024-02-16T00:02:49;4.83;;;4.63;;
297;SDS011;133;49.626;9.680;2024-02-16T00:05:15;4.83;;;3.97;;
297;SDS011;133;49.626;9.680;2024-02-16T00:07:41;5.53;;;3.93;;
297;SDS011;133;49.626;9.680;2024-02-16T00:10:07;4.17;;;3.93;;
297;SDS011;133;49.626;9.680;2024-02-16T00:12:34;4.03;;;3.83;;
297;SDS011;133;49.626;9.680;2024-02-16T00:15:01;3.60;;;3.40;;
297;SDS011;133;49.626;9.680;2024-02-16T00:17:27;3.97;;;3.40;;
297;SDS011;133;49.626;9.680;2024-02-16T00:19:53;5.10;;;3.27;;
297;SDS011;133;49.626;9.680;2024-02-16T00:22:19;3.83;;;3.67;;
297;SDS011;133;49.626;9.680;2024-02-16T00:24:45;3.33;;;3.20;;
297;SDS011;133;49.626;9.680;2024-02-16T00:27:11;4.60;;;4.00;;
297;SDS011;133;49.626;9.680;2024-02-16T00:29:37;6.70;;;4.87;;
297;SDS011;133;49.626;9.680;2024-02-16T00:32:05;5.53;;;4.70;;
297;SDS011;133;49.626;9.680;2024-02-16T00:34:32;5.97;;;4.97;;
297;SDS011;133;49.626;9.680;2024-02-16T00:36:59;5.60;;;5.00;;
297;SDS011;133;49.626;9.680;2024-02-16T00:39:25;7.17;;;5.17;;
297;SDS011;133;49.626;9.680;2024-02-16T00:41:50;6.00;;;5.17;;
297;SDS011;133;49.626;9.680;2024-02-16T00:44:16;7.47;;;5.97;;
297;SDS011;133;49.626;9.680;2024-02-16T00:46:43;9.90;;;7.60;;
297;SDS011;133;49.626;9.680;2024-02-16T00:49:09;6.67;;;6.27;;
297;SDS011;133;49.626;9.680;2024-02-16T00:51:37;7.50;;;6.23;;
297;SDS011;133;49.626;9.680;2024-02-16T00:54:04;6.20;;;5.50;;
297;SDS011;133;49.626;9.680;2024-02-16T00:56:30;5.70;;;5.40;;
297;SDS011;133;49.626;9.680;2024-02-16T00:58:59;6.87;;;5.60;;
297;SDS011;133;49.626;9.680;2024-02-16T01:01:25;5.20;;;4.53;;
297;SDS011;133;49.626;9.680;2024-02-16T01:03:51;5.90;;;5.10;;
297;SDS011;133;49.626;9.680;2024-02-16T01:06:18;6.63;;;4.67;;
297;SDS011;133;49.626;9.680;2024-02-16T01:08:44;4.00;;;3.80;;
297;SDS011;133;49.626;9.680;2024-02-16T01:11:10;3.80;;;3.47;;
297;SDS011;133;49.626;9.680;2024-02-16T01:13:35;3.73;;;3.30;;
297;SDS011;133;49.626;9.680;2024-02-16T01:16:02;4.77;;;3.33;;
297;SDS011;133;49.626;9.680;2024-02-16T01:18:28;3.20;;;3.00;;
297;SDS011;133;49.626;9.680;2024-02-16T01:20:55;3.30;;;3.20;;
297;SDS011;133;49.626;9.680;2024-02-16T01:23:21;5.10;;;3.90;;
297;SDS011;133;49.626;9.680;2024-02-16T01:25:47;7.17;;;4.17;;
297;SDS011;133;49.626;9.680;2024-02-16T01:28:13;8.80;;;4.50;;
297;SDS011;133;49.626;9.680;2024-02-16T01:30:39;6.20;;;4.30;;
297;SDS011;133;49.626;9.680;2024-02-16T01:33:05;4.87;;;4.60;;
297;SDS011;133;49.626;9.680;2024-02-16T01:35:32;4.50;;;3.90;;
297;SDS011;133;49.626;9.680;2024-02-16T01:37:58;4.23;;;3.63;;
297;SDS011;133;49.626;9.680;2024-02-16T01:40:23;5.70;;;3.70;;
297;SDS011;133;49.626;9.680;2024-02-16T01:42:51;5.20;;;4.60;;
297;SDS011;133;49.626;9.680;2024-02-16T01:45:20;7.27;;;5.07;;
297;SDS011;133;49.626;9.680;2024-02-16T01:47:47;7.30;;;5.50;;
297;SDS011;133;49.626;9.680;2024-02-16T01:50:15;7.30;;;5.60;;
297;SDS011;133;49.626;9.680;2024-02-16T01:52:42;6.67;;;5.77;;
297;SDS011;133;49.626;9.680;2024-02-16T01:55:08;7.90;;;5.90;;
297;SDS011;133;49.626;9.680;2024-02-16T01:57:35;5.23;;;4.60;;
297;SDS011;133;49.626;9.680;2024-02-16T02:00:02;6.53;;;5.33;;
297;SDS011;133;49.626;9.680;2024-02-16T02:02:28;8.53;;;5.57;;
297;SDS011;133;49.626;9.680;2024-02-16T02:04:54;5.80;;;5.30;;
297;SDS011;133;49.626;9.680;2024-02-16T02:07:24;8.17;;;6.10;;
297;SDS011;133;49.626;9.680;2024-02-16T02:09:52;7.30;;;6.43;;
297;SDS011;133;49.626;9.680;2024-02-16T02:12:17;9.20;;;6.87;;
297;SDS011;133;49.626;9.680;2024-02-16T02:14:43;7.53;;;6.17;;
297;SDS011;133;49.626;9.680;2024-02-16T02:17:09;7.90;;;6.10;;
297;SDS011;133;49.626;9.680;2024-02-16T02:19:35;6.10;;;5.60;;
297;SDS011;133;49.626;9.680;2024-02-16T02:22:00;9.30;;;7.70;;
297;SDS011;133;49.626;9.680;2024-02-16T02:24:26;10.70;;;6.80;;
297;SDS011;133;49.626;9.680;2024-02-16T02:26:52;8.07;;;7.00;;
297;SDS011;133;49.626;9.680;2024-02-16T02:29:18;10.00;;;7.57;;
297;SDS011;133;49.626;9.680;2024-02-16T02:31:43;11.87;;;7.50;;
297;SDS011;133;49.626;9.680;2024-02-16T02:34:09;8.10;;;5.53;;
297;SDS011;133;49.626;9.680;2024-02-16T02:36:35;5.83;;;4.50;;
297;SDS011;133;49.626;9.680;2024-02-16T02:39:01;8.33;;;4.40;;
297;SDS011;133;49.626;9.680;2024-02-16T02:41:27;5.60;;;4.90;;
297;SDS011;133;49.626;9.680;2024-02-16T02:43:53;5.70;;;5.33;;
297;SDS011;133;49.626;9.680;2024-02-16T02:46:18;7.30;;;6.00;;
297;SDS011;133;49.626;9.680;2024-02-16T02:48:44;6.53;;;5.00;;
297;SDS011;133;49.626;9.680;2024-02-16T02:51:11;5.10;;;4.77;;
297;SDS011;133;49.626;9.680;2024-02-16T02:53:37;4.90;;;4.53;;
297;SDS011;133;49.626;9.680;2024-02-16T02:56:03;3.77;;;3.27;;
297;SDS011;133;49.626;9.680;2024-02-16T02:58:29;3.40;;;3.10;;
297;SDS011;133;49.626;9.680;2024-02-16T03:00:55;3.50;;;3.03;;
297;SDS011;133;49.626;9.680;2024-02-16T03:03:21;8.00;;;4.40;;
297;SDS011;133;49.626;9.680;2024-02-16T03:05:47;5.43;;;5.03;;
297;SDS011;133;49.626;9.680;2024-02-16T03:08:14;7.50;;;4.87;;
297;SDS011;133;49.626;9.680;2024-02-16T03:10:39;8.33;;;5.37;;
297;SDS011;133;49.626;9.680;2024-02-16T03:13:06;8.80;;;6.00;;
297;SDS011;133;49.626;9.680;2024-02-16T03:15:34;10.40;;;8.10;;
297;SDS011;133;49.626;9.680;2024-02-16T03:18:01;8.80;;;6.73;;
297;SDS011;133;49.626;9.680;2024-02-16T03:20:27;7.17;;;6.00;;
297;SDS011;133;49.626;9.680;2024-02-16T03:22:53;6.67;;;4.83;;
297;SDS011;133;49.626;9.680;2024-02-16T03:25:18;6.37;;;4.90;;
297;SDS011;133;49.626;9.680;2024-02-16T03:27:45;6.60;;;5.60;;
297;SDS011;133;49.626;9.680;2024-02-16T03:30:10;6.20;;;5.53;;
297;SDS011;133;49.626;9.680;2024-02-16T03:32:36;8.13;;;6.17;;
297;SDS011;133;49.626;9.680;2024-02-16T03:35:02;6.40;;;5.70;;
297;SDS011;133;49.626;9.680;2024-02-16T03:37:29;8.67;;;6.40;;
297;SDS011;133;49.626;9.680;2024-02-16T03:39:55;9.30;;;5.80;;
297;SDS011;133;49.626;9.680;2024-02-16T03:42:21;8.40;;;6.10;;
297;SDS011;133;49.626;9.680;2024-02-16T03:44:46;8.83;;;6.53;;
297;SDS011;133;49.626;9.680;2024-02-16T03:47:12;6.40;;;6.00;;
297;SDS011;133;49.626;9.680;2024-02-16T03:49:38;8.60;;;6.43;;
297;SDS011;133;49.626;9.680;2024-02-16T03:52:04;7.00;;;6.13;;
297;SDS011;133;49.626;9.680;2024-02-16T03:54:30;7.27;;;6.17;;
297;SDS011;133;49.626;9.680;2024-02-16T03:56:57;6.70;;;6.33;;
297;SDS011;133;49.626;9.680;2024-02-16T03:59:23;6.27;;;5.00;;
297;SDS011;133;49.626;9.680;2024-02-16T04:01:51;8.43;;;4.90;;
297;SDS011;133;49.626;9.680;2024-02-16T04:04:17;6.40;;;5.77;;
297;SDS011;133;49.626;9.680;2024-02-16T04:06:43;6.73;;;6.27;;
297;SDS011;133;49.626;9.680;2024-02-16T04:09:09;7.80;;;5.67;;
297;SDS011;133;49.626;9.680;2024-02-16T04:11:35;6.37;;;5.80;;
297;SDS011;133;49.626;9.680;2024-02-16T04:14:02;7.70;;;5.70;;
297;SDS011;133;49.626;9.680;2024-02-16T04:16:27;6.03;;;4.83;;
297;SDS011;133;49.626;9.680;2024-02-16T04:18:53;5.50;;;4.43;;
297;SDS011;133;49.626;9.680;2024-02-16T04:21:20;5.10;;;4.37;;
297;SDS011;133;49.626;9.680;2024-02-16T04:23:46;6.10;;;4.20;;
297;SDS011;133;49.626;9.680;2024-02-16T04:26:11;3.93;;;3.77;;
297;SDS011;133;49.626;9.680;2024-02-16T04:28:37;4.00;;;3.50;;
297;SDS011;133;49.626;9.680;2024-02-16T04:31:04;3.53;;;3.33;;
297;SDS011;133;49.626;9.680;2024-02-16T04:33:29;3.47;;;3.27;;
297;SDS011;133;49.626;9.680;2024-02-16T04:35:55;6.73;;;3.80;;
297;SDS011;133;49.626;9.680;2024-02-16T04:38:20;5.33;;;4.80;;
297;SDS011;133;49.626;9.680;2024-02-16T04:40:46;4.93;;;4.57;;
297;SDS011;133;49.626;9.680;2024-02-16T04:43:12;8.80;;;6.30;;
297;SDS011;133;49.626;9.680;2024-02-16T04:45:38;8.43;;;6.30;;
297;SDS011;133;49.626;9.680;2024-02-16T04:48:07;7.40;;;6.07;;
297;SDS011;133;49.626;9.680;2024-02-16T04:50:33;5.20;;;4.00;;
297;SDS011;133;49.626;9.680;2024-02-16T04:53:00;3.50;;;3.30;;
297;SDS011;133;49.626;9.680;2024-02-16T04:55:29;6.20;;;3.80;;
297;SDS011;133;49.626;9.680;2024-02-16T04:57:56;3.50;;;3.30;;
297;SDS011;133;49.626;9.680;2024-02-16T05:00:21;4.10;;;3.20;;
297;SDS011;133;49.626;9.680;2024-02-16T05:02:47;3.83;;;3.63;;
297;SDS011;133;49.626;9.680;2024-02-16T05:05:13;4.70;;;3.60;;
297;SDS011;133;49.626;9.680;2024-02-16T05:07:40;4.90;;;3.20;;
297;SDS011;133;49.626;9.680;2024-02-16T05:10:10;3.90;;;3.70;;
297;SDS011;133;49.626;9.680;2024-02-16T05:12:36;4.07;;;3.87;;
297;SDS011;133;49.626;9.680;2024-02-16T05:15:02;9.90;;;5.73;;
297;SDS011;133;49.626;9.680;2024-02-16T05:17:28;4.60;;;4.30;;
297;SDS011;133;49.626;9.680;2024-02-16T05:19:54;3.77;;;3.57;;
297;SDS011;133;49.626;9.680;2024-02-16T05:22:20;5.20;;;4.30;;
297;SDS011;133;49.626;9.680;2024-02-16T05:24:46;4.67;;;4.07;;
297;SDS011;133;49.626;9.680;2024-02-16T05:27:12;10.70;;;5.60;;
297;SDS011;133;49.626;9.680;2024-02-16T05:29:38;6.07;;;5.30;;
297;SDS011;133;49.626;9.680;2024-02-16T05:32:04;5.97;;;5.70;;
297;SDS011;133;49.626;9.680;2024-02-16T05:34:30;5.63;;;4.90;;
297;SDS011;133;49.626;9.680;2024-02-16T05:37:02;4.90;;;4.60;;
297;SDS011;133;49.626;9.680;2024-02-16T05:39:31;5.30;;;4.57;;
297;SDS011;133;49.626;9.680;2024-02-16T05:41:59;5.60;;;4.90;;
297;SDS011;133;49.626;9.680;2024-02-16T05:44:26;6.50;;;5.13;;
297;SDS011;133;49.626;9.680;2024-02-16T05:46:51;6.50;;;5.53;;
297;SDS011;133;49.626;9.680;2024-02-16T05:49:17;8.83;;;6.80;;
297;SDS011;133;49.626;9.680;2024-02-16T05:51:42;8.57;;;5.80;;
297;SDS011;133;49.626;9.680;2024-02-16T05:54:26;5.90;;;5.60;;
297;SDS011;133;49.626;9.680;2024-02-16T05:56:52;6.67;;;5.57;;
297;SDS011;133;49.626;9.680;2024-02-16T05:59:18;10.33;;;6.50;;
297;SDS011;133;49.626;9.680;2024-02-16T06:01:43;6.10;;;5.33;;
297;SDS011;133;49.626;9.680;2024-02-16T06:04:09;6.03;;;5.70;;
297;SDS011;133;49.626;9.680;2024-02-16T06:06:35;7.30;;;5.47;;
297;SDS011;133;49.626;9.680;2024-02-16T06:09:01;6.63;;;5.60;;
297;SDS011;133;49.626;9.680;2024-02-16T06:11:26;8.60;;;5.50;;
297;SDS011;133;49.626;9.680;2024-02-16T06:13:52;6.03;;;4.80;;
297;SDS011;133;49.626;9.680;2024-02-16T06:16:18;6.13;;;4.43;;
297;SDS011;133;49.626;9.680;2024-02-16T06:18:44;4.67;;;4.07;;
297;SDS011;133;49.626;9.680;2024-02-16T06:21:10;4.23;;;3.97;;
297;SDS011;133;49.626;9.680;2024-02-16T06:23:35;4.90;;;4.60;;
297;SDS011;133;49.626;9.680;2024-02-16T06:26:01;4.63;;;4.10;;
297;SDS011;133;49.626;9.680;2024-02-16T06:28:26;5.20;;;4.40;;
297;SDS011;133;49.626;9.680;2024-02-16T06:30:52;7.30;;;4.53;;
297;SDS011;133;49.626;9.680;2024-02-16T06:33:18;6.20;;;4.27;;
297;SDS011;133;49.626;9.680;2024-02-16T06:35:44;4.30;;;4.00;;
297;SDS011;133;49.626;9.680;2024-02-16T06:38:11;6.40;;;3.87;;
297;SDS011;133;49.626;9.680;2024-02-16T06:40:37;4.30;;;4.00;;
297;SDS011;133;49.626;9.680;2024-02-16T06:43:03;3.83;;;3.63;;
297;SDS011;133;49.626;9.680;2024-02-16T06:45:30;8.20;;;4.40;;
297;SDS011;133;49.626;9.680;2024-02-16T06:47:56;4.00;;;3.70;;
297;SDS011;133;49.626;9.680;2024-02-16T06:50:21;4.33;;;4.03;;
297;SDS011;133;49.626;9.680;2024-02-16T06:52:47;4.93;;;4.07;;
297;SDS011;133;49.626;9.680;2024-02-16T06:55:13;7.90;;;5.47;;
297;SDS011;133;49.626;9.680;2024-02-16T06:57:38;5.63;;;5.37;;
297;SDS011;133;49.626;9.680;2024-02-16T07:00:04;4.80;;;4.40;;
297;SDS011;133;49.626;9.680;2024-02-16T07:02:30;12.17;;;4.97;;
297;SDS011;133;49.626;9.680;2024-02-16T07:04:57;8.33;;;4.43;;
297;SDS011;133;49.626;9.680;2024-02-16T07:07:23;8.77;;;4.97;;
297;SDS011;133;49.626;9.680;2024-02-16T07:09:48;6.00;;;4.90;;
297;SDS011;133;49.626;9.680;2024-02-16T07:12:14;5.10;;;4.80;;
297;SDS011;133;49.626;9.680;2024-02-16T07:14:40;6.10;;;5.20;;
297;SDS011;133;49.626;9.680;2024-02-16T07:17:06;5.70;;;5.30;;
297;SDS011;133;49.626;9.680;2024-02-16T07:19:34;6.43;;;5.33;;
297;SDS011;133;49.626;9.680;2024-02-16T07:22:00;5.57;;;5.27;;
297;SDS011;133;49.626;9.680;2024-02-16T07:24:26;5.20;;;4.93;;
297;SDS011;133;49.626;9.680;2024-02-16T07:26:52;5.33;;;5.03;;
297;SDS011;133;49.626;9.680;2024-02-16T07:29:18;5.33;;;5.00;;
297;SDS011;133;49.626;9.680;2024-02-16T07:31:44;7.30;;;5.43;;
297;SDS011;133;49.626;9.680;2024-02-16T07:34:10;9.60;;;7.73;;
297;SDS011;133;49.626;9.680;2024-02-16T07:36:36;10.33;;;7.87;;
297;SDS011;133;49.626;9.680;2024-02-16T07:39:02;8.50;;;7.73;;
297;SDS011;133;49.626;9.680;2024-02-16T07:41:29;9.17;;;7.50;;
297;SDS011;133;49.626;9.680;2024-02-16T07:43:55;8.07;;;6.50;;
297;SDS011;133;49.626;9.680;2024-02-16T07:46:21;8.17;;;7.20;;
297;SDS011;133;49.626;9.680;2024-02-16T07:48:48;11.67;;;7.50;;
297;SDS011;133;49.626;9.680;2024-02-16T07:51:13;8.20;;;6.87;;
297;SDS011;133;49.626;9.680;2024-02-16T07:53:39;9.20;;;7.00;;
297;SDS011;133;49.626;9.680;2024-02-16T07:56:07;7.27;;;6.30;;
297;SDS011;133;49.626;9.680;2024-02-16T07:58:32;7.83;;;6.77;;
297;SDS011;133;49.626;9.680;2024-02-16T08:00:58;5.67;;;5.33;;
297;SDS011;133;49.626;9.680;2024-02-16T08:03:23;11.13;;;6.53;;
297;SDS011;133;49.626;9.680;2024-02-16T08:05:49;6.40;;;5.60;;
297;SDS011;133;49.626;9.680;2024-02-16T08:08:15;9.30;;;6.40;;
297;SDS011;133;49.626;9.680;2024-02-16T08:10:40;6.63;;;5.97;;
297;SDS011;133;49.626;9.680;2024-02-16T08:13:06;6.60;;;5.73;;
297;SDS011;133;49.626;9.680;2024-02-16T08:15:32;7.57;;;5.50;;
297;SDS011;133;49.626;9.680;2024-02-16T08:17:57;6.33;;;5.47;;
297;SDS011;133;49.626;9.680;2024-02-16T08:20:23;6.40;;;5.50;;
297;SDS011;133;49.626;9.680;2024-02-16T08:22:48;6.73;;;5.90;;
297;SDS011;133;49.626;9.680;2024-02-16T08:25:14;7.70;;;6.00;;
297;SDS011;133;49.626;9.680;2024-02-16T08:27:40;6.17;;;5.10;;
297;SDS011;133;49.626;9.680;2024-02-16T08:30:06;7.47;;;6.30;;
297;SDS011;133;49.626;9.680;2024-02-16T08:32:33;6.40;;;6.00;;
297;SDS011;133;49.626;9.680;2024-02-16T08:34:59;8.10;;;6.90;;
297;SDS011;133;49.626;9.680;2024-02-16T08:37:25;8.60;;;6.73;;
297;SDS011;133;49.626;9.680;2024-02-16T08:39:51;12.70;;;7.33;;
297;SDS011;133;49.626;9.680;2024-02-16T08:42:17;8.03;;;6.00;;
297;SDS011;133;49.626;9.680;2024-02-16T08:44:43;7.20;;;6.83;;
297;SDS011;133;49.626;9.680;2024-02-16T08:47:08;7.23;;;6.83;;
297;SDS011;133;49.626;9.680;2024-02-16T08:49:34;7.30;;;6.47;;
297;SDS011;133;49.626;9.680;2024-02-16T08:52:01;11.57;;;8.00;;
297;SDS011;133;49.626;9.680;2024-02-16T08:54:27;9.43;;;7.13;;
297;SDS011;133;49.626;9.680;2024-02-16T08:56:53;7.50;;;6.23;;
297;SDS011;133;49.626;9.680;2024-02-16T08:59:19;10.80;;;6.90;;
297;SDS011;133;49.626;9.680;2024-02-16T09:01:45;8.73;;;6.40;;
297;SDS011;133;49.626;9.680;2024-02-16T09:04:11;12.10;;;6.33;;
297;SDS011;133;49.626;9.680;2024-02-16T09:06:37;5.87;;;5.60;;
297;SDS011;133;49.626;9.680;2024-02-16T09:09:04;13.70;;;6.43;;
297;SDS011;133;49.626;9.680;2024-02-16T09:11:31;6.57;;;5.77;;
297;SDS011;133;49.626;9.680;2024-02-16T09:13:57;8.60;;;6.40;;
297;SDS011;133;49.626;9.680;2024-02-16T09:16:23;9.53;;;7.70;;
297;SDS011;133;49.626;9.680;2024-02-16T09:18:48;9.80;;;7.17;;
297;SDS011;133;49.626;9.680;2024-02-16T09:21:14;7.67;;;7.30;;
297;SDS011;133;49.626;9.680;2024-02-16T09:23:40;9.63;;;7.23;;
297;SDS011;133;49.626;9.680;2024-02-16T09:26:05;9.53;;;8.00;;
297;SDS011;133;49.626;9.680;2024-02-16T09:28:34;11.40;;;8.27;;
297;SDS011;133;49.626;9.680;2024-02-16T09:31:06;9.43;;;8.23;;
297;SDS011;133;49.626;9.680;2024-02-16T09:33:33;10.50;;;8.93;;
297;SDS011;133;49.626;9.680;2024-02-16T09:36:00;16.70;;;13.00;;
297;SDS011;133;49.626;9.680;2024-02-16T09:38:25;17.77;;;12.27;;
297;SDS011;133;49.626;9.680;2024-02-16T09:40:51;15.73;;;9.80;;
297;SDS011;133;49.626;9.680;2024-02-16T09:43:27;10.07;;;8.87;;
297;SDS011;133;49.626;9.680;2024-02-16T09:45:58;9.73;;;8.33;;
297;SDS011;133;49.626;9.680;2024-02-16T09:48:27;10.33;;;8.00;;
297;SDS011;133;49.626;9.680;2024-02-16T09:50:54;12.80;;;8.33;;
297;SDS011;133;49.626;9.680;2024-02-16T09:53:21;9.67;;;7.87;;
297;SDS011;133;49.626;9.680;2024-02-16T09:55:50;14.23;;;8.67;;
297;SDS011;133;49.626;9.680;2024-02-16T09:58:17;8.47;;;7.57;;
297;SDS011;133;49.626;9.680;2024-02-16T10:01:02;12.50;;;7.73;;
297;SDS011;133;49.626;9.680;2024-02-16T10:03:28;8.20;;;6.97;;
297;SDS011;133;49.626;9.680;2024-02-16T10:06:10;8.50;;;7.20;;
297;SDS011;133;49.626;9.680;2024-02-16T10:08:52;9.30;;;7.50;;
297;SDS011;133;49.626;9.680;2024-02-16T10:11:20;9.40;;;6.70;;
297;SDS011;133;49.626;9.680;2024-02-16T10:13:53;11.10;;;8.10;;
297;SDS011;133;49.626;9.680;2024-02-16T10:16:26;8.60;;;6.87;;
297;SDS011;133;49.626;9.680;2024-02-16T10:18:55;11.90;;;6.67;;
297;SDS011;133;49.626;9.680;2024-02-16T10:21:35;7.83;;;7.17;;
297;SDS011;133;49.626;9.680;2024-02-16T10:24:08;10.07;;;6.60;;
297;SDS011;133;49.626;9.680;2024-02-16T10:26:35;9.50;;;6.37;;
297;SDS011;133;49.626;9.680;2024-02-16T10:29:14;7.07;;;6.03;;
297;SDS011;133;49.626;9.680;2024-02-16T10:31:44;9.77;;;6.40;;
297;SDS011;133;49.626;9.680;2024-02-16T10:34:10;6.00;;;5.27;;
297;SDS011;133;49.626;9.680;2024-02-16T10:36:37;6.50;;;5.50;;
297;SDS011;133;49.626;9.680;2024-02-16T10:39:04;6.87;;;4.90;;
297;SDS011;133;49.626;9.680;2024-02-16T10:41:48;7.40;;;5.20;;
297;SDS011;133;49.626;9.680;2024-02-16T10:44:16;8.93;;;5.00;;
297;SDS011;133;49.626;9.680;2024-02-16T10:46:42;5.60;;;4.70;;
297;SDS011;133;49.626;9.680;2024-02-16T10:49:07;7.03;;;4.73;;
297;SDS011;133;49.626;9.680;2024-02-16T10:51:55;4.60;;;4.33;;
297;SDS011;133;49.626;9.680;2024-02-16T10:54:22;3.90;;;3.63;;
297;SDS011;133;49.626;9.680;2024-02-16T10:56:53;4.80;;;3.70;;
297;SDS011;133;49.626;9.680;2024-02-16T10:59:19;3.70;;;3.50;;
297;SDS011;133;49.626;9.680;2024-02-16T11:01:45;3.80;;;3.60;;
297;SDS011;133;49.626;9.680;2024-02-16T11:04:12;3.60;;;3.40;;
297;SDS011;133;49.626;9.680;2024-02-16T11:06:56;4.80;;;3.80;;
297;SDS011;133;49.626;9.680;2024-02-16T11:09:34;4.80;;;3.50;;
297;SDS011;133;49.626;9.680;2024-02-16T11:12:01;5.67;;;3.63;;
297;SDS011;133;49.626;9.680;2024-02-16T11:14:34;3.43;;;3.23;;
297;SDS011;133;49.626;9.680;2024-02-16T11:19:45;10.03;;;4.07;;
297;SDS011;133;49.626;9.680;2024-02-16T11:22:15;3.67;;;3.50;;
297;SDS011;133;49.626;9.680;2024-02-16T11:24:45;5.07;;;3.33;;
297;SDS011;133;49.626;9.680;2024-02-16T11:27:11;4.43;;;3.97;;
297;SDS011;133;49.626;9.680;2024-02-16T11:29:38;6.23;;;3.93;;
297;SDS011;133;49.626;9.680;2024-02-16T11:32:04;3.60;;;3.40;;
297;SDS011;133;49.626;9.680;2024-02-16T11:34:31;3.30;;;3.10;;
297;SDS011;133;49.626;9.680;2024-02-16T11:36:58;4.27;;;3.63;;
297;SDS011;133;49.626;9.680;2024-02-16T11:39:25;4.53;;;3.17;;
297;SDS011;133;49.626;9.680;2024-02-16T11:44:34;3.63;;;3.40;;
297;SDS011;133;49.626;9.680;2024-02-16T11:47:01;5.80;;;3.30;;
297;SDS011;133;49.626;9.680;2024-02-16T11:49:32;3.77;;;3.50;;
297;SDS011;133;49.626;9.680;2024-02-16T11:52:00;5.80;;;3.43;;
297;SDS011;133;49.626;9.680;2024-02-16T11:54:28;5.57;;;3.43;;
297;SDS011;133;49.626;9.680;2024-02-16T11:56:55;7.70;;;3.40;;
297;SDS011;133;49.626;9.680;2024-02-16T11:59:21;7.27;;;3.13;;
297;SDS011;133;49.626;9.680;2024-02-16T12:01:51;5.90;;;3.23;;
297;SDS011;133;49.626;9.680;2024-02-16T12:04:20;5.50;;;3.97;;
297;SDS011;133;49.626;9.680;2024-02-16T12:06:55;3.80;;;3.50;;
297;SDS011;133;49.626;9.680;2024-02-16T12:09:25;7.17;;;3.50;;
297;SDS011;133;49.626;9.680;2024-02-16T12:11:54;3.97;;;3.50;;
297;SDS011;133;49.626;9.680;2024-02-16T12:14:23;5.30;;;3.40;;
297;SDS011;133;49.626;9.680;2024-02-16T12:16:49;3.70;;;3.10;;
297;SDS011;133;49.626;9.680;2024-02-16T12:19:16;4.10;;;3.20;;
297;SDS011;133;49.626;9.680;2024-02-16T12:21:43;5.33;;;3.30;;
297;SDS011;133;49.626;9.680;2024-02-16T12:24:09;6.83;;;4.03;;
297;SDS011;133;49.626;9.680;2024-02-16T12:26:36;3.93;;;3.43;;
297;SDS011;133;49.626;9.680;2024-02-16T12:29:02;5.43;;;3.43;;
297;SDS011;133;49.626;9.680;2024-02-16T12:31:29;6.67;;;3.87;;
297;SDS011;133;49.626;9.680;2024-02-16T12:33:55;4.00;;;3.30;;
297;SDS011;133;49.626;9.680;2024-02-16T12:36:21;6.63;;;4.20;;
297;SDS011;133;49.626;9.680;2024-02-16T12:38:48;6.27;;;3.53;;
297;SDS011;133;49.626;9.680;2024-02-16T12:41:14;6.03;;;3.87;;
297;SDS011;133;49.626;9.680;2024-02-16T12:43:40;5.80;;;3.70;;
297;SDS011;133;49.626;9.680;2024-02-16T12:46:06;5.10;;;3.80;;
297;SDS011;133;49.626;9.680;2024-02-16T12:48:31;5.57;;;4.00;;
297;SDS011;133;49.626;9.680;2024-02-16T12:50:57;7.93;;;3.60;;
297;SDS011;133;49.626;9.680;2024-02-16T12:53:23;6.43;;;3.47;;
297;SDS011;133;49.626;9.680;2024-02-16T12:55:50;8.20;;;3.67;;
297;SDS011;133;49.626;9.680;2024-02-16T12:58:16;4.40;;;3.50;;
297;SDS011;133;49.626;9.680;2024-02-16T13:00:42;5.47;;;4.70;;
297;SDS011;133;49.626;9.680;2024-02-16T13:03:07;4.50;;;3.50;;
297;SDS011;133;49.626;9.680;2024-02-16T13:05:33;4.53;;;3.67;;
297;SDS011;133;49.626;9.680;2024-02-16T13:07:59;4.90;;;3.50;;
297;SDS011;133;49.626;9.680;2024-02-16T13:10:25;7.03;;;3.90;;
297;SDS011;133;49.626;9.680;2024-02-16T13:12:50;4.60;;;3.67;;
297;SDS011;133;49.626;9.680;2024-02-16T13:15:16;6.03;;;4.07;;
297;SDS011;133;49.626;9.680;2024-02-16T13:17:42;6.17;;;4.07;;
297;SDS011;133;49.626;9.680;2024-02-16T13:20:07;5.27;;;3.70;;
297;SDS011;133;49.626;9.680;2024-02-16T13:22:37;5.80;;;3.60;;
297;SDS011;133;49.626;9.680;2024-02-16T13:25:03;9.50;;;4.30;;
297;SDS011;133;49.626;9.680;2024-02-16T13:27:29;5.83;;;3.80;;
297;SDS011;133;49.626;9.680;2024-02-16T13:29:55;5.90;;;3.27;;
297;SDS011;133;49.626;9.680;2024-02-16T13:32:21;3.83;;;3.57;;
297;SDS011;133;49.626;9.680;2024-02-16T13:34:47;7.17;;;3.90;;
297;SDS011;133;49.626;9.680;2024-02-16T13:37:13;7.47;;;3.63;;
297;SDS011;133;49.626;9.680;2024-02-16T13:39:39;5.40;;;3.80;;
297;SDS011;133;49.626;9.680;2024-02-16T13:42:04;5.00;;;3.80;;
297;SDS011;133;49.626;9.680;2024-02-16T13:44:31;5.13;;;3.47;;
297;SDS011;133;49.626;9.680;2024-02-16T13:46:57;8.50;;;3.90;;
297;SDS011;133;49.626;9.680;2024-02-16T13:49:22;8.40;;;3.37;;
297;SDS011;133;49.626;9.680;2024-02-16T13:51:48;5.00;;;4.10;;
297;SDS011;133;49.626;9.680;2024-02-16T13:54:14;4.57;;;3.73;;
297;SDS011;133;49.626;9.680;2024-02-16T13:56:39;10.73;;;3.77;;
297;SDS011;133;49.626;9.680;2024-02-16T13:59:06;8.80;;;3.60;;
297;SDS011;133;49.626;9.680;2024-02-16T14:01:34;5.67;;;4.67;;
297;SDS011;133;49.626;9.680;2024-02-16T14:04:01;7.00;;;3.90;;
297;SDS011;133;49.626;9.680;2024-02-16T14:06:28;8.10;;;3.93;;
297;SDS011;133;49.626;9.680;2024-02-16T14:08:54;11.23;;;4.20;;
297;SDS011;133;49.626;9.680;2024-02-16T14:11:21;5.20;;;3.90;;
297;SDS011;133;49.626;9.680;2024-02-16T14:13:47;4.33;;;3.97;;
297;SDS011;133;49.626;9.680;2024-02-16T14:16:13;7.80;;;3.93;;
297;SDS011;133;49.626;9.680;2024-02-16T14:18:39;6.60;;;3.83;;
297;SDS011;133;49.626;9.680;2024-02-16T14:21:05;7.60;;;4.20;;
297;SDS011;133;49.626;9.680;2024-02-16T14:23:31;5.40;;;4.03;;
297;SDS011;133;49.626;9.680;2024-02-16T14:25:57;5.07;;;3.70;;
297;SDS011;133;49.626;9.680;2024-02-16T14:28:23;7.13;;;3.50;;
297;SDS011;133;49.626;9.680;2024-02-16T14:30:49;9.30;;;4.27;;
297;SDS011;133;49.626;9.680;2024-02-16T14:33:16;9.37;;;3.63;;
297;SDS011;133;49.626;9.680;2024-02-16T14:35:42;5.10;;;4.10;;
297;SDS011;133;49.626;9.680;2024-02-16T14:38:08;6.43;;;4.57;;
297;SDS011;133;49.626;9.680;2024-02-16T14:40:34;7.83;;;4.10;;
297;SDS011;133;49.626;9.680;2024-02-16T14:43:00;11.00;;;4.60;;
297;SDS011;133;49.626;9.680;2024-02-16T14:45:27;5.53;;;4.00;;
297;SDS011;133;49.626;9.680;2024-02-16T14:47:52;6.87;;;4.23;;
297;SDS011;133;49.626;9.680;2024-02-16T14:50:18;8.03;;;3.73;;
297;SDS011;133;49.626;9.680;2024-02-16T14:52:44;4.50;;;3.93;;
297;SDS011;133;49.626;9.680;2024-02-16T14:55:10;11.90;;;4.27;;
297;SDS011;133;49.626;9.680;2024-02-16T14:57:39;10.63;;;3.93;;
297;SDS011;133;49.626;9.680;2024-02-16T15:00:08;8.20;;;4.17;;
297;SDS011;133;49.626;9.680;2024-02-16T15:02:35;4.80;;;3.80;;
297;SDS011;133;49.626;9.680;2024-02-16T15:05:02;7.37;;;4.50;;
297;SDS011;133;49.626;9.680;2024-02-16T15:07:29;9.20;;;6.07;;
297;SDS011;133;49.626;9.680;2024-02-16T15:09:55;11.73;;;5.90;;
297;SDS011;133;49.626;9.680;2024-02-16T15:12:20;8.27;;;4.20;;
297;SDS011;133;49.626;9.680;2024-02-16T15:14:47;12.70;;;4.50;;
297;SDS011;133;49.626;9.680;2024-02-16T15:17:12;7.20;;;4.20;;
297;SDS011;133;49.626;9.680;2024-02-16T15:19:38;6.57;;;4.43;;
297;SDS011;133;49.626;9.680;2024-02-16T15:22:04;6.00;;;3.97;;
297;SDS011;133;49.626;9.680;2024-02-16T15:24:30;5.10;;;3.93;;
297;SDS011;133;49.626;9.680;2024-02-16T15:26:55;6.67;;;3.80;;
297;SDS011;133;49.626;9.680;2024-02-16T15:29:21;7.67;;;4.30;;
297;SDS011;133;49.626;9.680;2024-02-16T15:31:47;12.47;;;4.20;;
297;SDS011;133;49.626;9.680;2024-02-16T15:34:12;6.03;;;4.10;;
297;SDS011;133;49.626;9.680;2024-02-16T15:36:38;9.30;;;4.17;;
297;SDS011;133;49.626;9.680;2024-02-16T15:39:04;8.73;;;3.83;;
297;SDS011;133;49.626;9.680;2024-02-16T15:41:32;6.13;;;3.60;;
297;SDS011;133;49.626;9.680;2024-02-16T15:43:58;5.80;;;4.27;;
297;SDS011;133;49.626;9.680;2024-02-16T15:46:23;5.43;;;3.80;;